sensor_id;sensor_type;location;lat;lon;timestamp;temperature;humidity
1355;DHT22;671;48.972;9.276;2024-03-08T00:00:09;4.40;99.90
1355;DHT22;671;48.972;9.276;2024-03-08T00:02:39;4.30;99.90
1355;DHT22;671;48.972;9.276;2024-03-08T00:05:06;4.30;99.90
1355;DHT22;671;48.972;9.276;2024-03-08T00:07:35;4.30;99.90
1355;DHT22;671;48.972;9.276;2024-03-08T00:10:07;4.30;99.90
1355;DHT22;671;48.972;9.276;2024-03-08T00:12:41;4.20;99.90
1355;DHT22;671;48.972;9.276;2024-03-08T00:15:11;4.20;99.90
1355;DHT22;671;48.972;9.276;2024-03-08T00:17:41;4.20;99.90
1355;DHT22;671;48.972;9.276;2024-03-08T00:20:07;4.10;99.90
1355;DHT22;671;48.972;9.276;2024-03-08T00:22:38;4.10;99.90
1355;DHT22;671;48.972;9.276;2024-03-08T00:25:06;4.10;99.90
1355;DHT22;671;48.972;9.276;2024-03-08T00:27:38;4.10;99.90
1355;DHT22;671;48.972;9.276;2024-03-08T00:30:05;4.00;99.90
1355;DHT22;671;48.972;9.276;2024-03-08T00:32:32;4.00;99.90
1355;DHT22;671;48.972;9.276;2024-03-08T00:34:58;4.00;99.90
1355;DHT22;671;48.972;9.276;2024-03-08T00:37:25;4.00;99.90
1355;DHT22;671;48.972;9.276;2024-03-08T00:39:52;3.90;99.90
1355;DHT22;671;48.972;9.276;2024-03-08T00:42:19;3.90;99.90
1355;DHT22;671;48.972;9.276;2024-03-08T00:44:46;3.90;99.90
1355;DHT22;671;48.972;9.276;2024-03-08T00:47:13;3.90;99.90
1355;DHT22;671;48.972;9.276;2024-03-08T00:49:41;3.90;99.90
1355;DHT22;671;48.972;9.276;2024-03-08T00:52:08;3.90;99.90
1355;DHT22;671;48.972;9.276;2024-03-08T00:54:35;3.80;99.90
1355;DHT22;671;48.972;9.276;2024-03-08T00:57:04;3.80;99.90
1355;DHT22;671;48.972;9.276;2024-03-08T00:59:32;3.80;99.90
1355;DHT22;671;48.972;9.276;2024-03-08T01:01:59;3.80;99.90
1355;DHT22;671;48.972;9.276;2024-03-08T01:04:29;3.80;99.90
1355;DHT22;671;48.972;9.276;2024-03-08T01:06:58;3.80;99.90
1355;DHT22;671;48.972;9.276;2024-03-08T01:09:26;3.70;99.90
1355;DHT22;671;48.972;9.276;2024-03-08T01:11:54;3.70;99.90
1355;DHT22;671;48.972;9.276;2024-03-08T01:14:21;3.70;99.90
1355;DHT22;671;48.972;9.276;2024-03-08T01:16:51;3.70;99.90
1355;DHT22;671;48.972;9.276;2024-03-08T01:19:18;3.70;99.90
1355;DHT22;671;48.972;9.276;2024-03-08T01:21:44;3.70;99.90
1355;DHT22;671;48.972;9.276;2024-03-08T01:24:11;3.60;99.90
1355;DHT22;671;48.972;9.276;2024-03-08T01:26:37;3.60;99.90
1355;DHT22;671;48.972;9.276;2024-03-08T01:29:05;3.60;99.90
1355;DHT22;671;48.972;9.276;2024-03-08T01:31:32;3.60;99.90
1355;DHT22;671;48.972;9.276;2024-03-08T01:33:58;3.50;99.90
1355;DHT22;671;48.972;9.276;2024-03-08T01:36:25;3.50;99.90
1355;DHT22;671;48.972;9.276;2024-03-08T01:38:52;3.50;99.90
1355;DHT22;671;48.972;9.276;2024-03-08T01:41:18;3.50;99.90
1355;DHT22;671;48.972;9.276;2024-03-08T01:43:46;3.50;99.90
1355;DHT22;671;48.972;9.276;2024-03-08T01:46:15;3.40;99.90
1355;DHT22;671;48.972;9.276;2024-03-08T01:48:43;3.40;99.90
1355;DHT22;671;48.972;9.276;2024-03-08T01:51:10;3.40;99.90
1355;DHT22;671;48.972;9.276;2024-03-08T01:53:38;3.40;99.90
1355;DHT22;671;48.972;9.276;2024-03-08T01:56:06;3.40;99.90
1355;DHT22;671;48.972;9.276;2024-03-08T01:58:33;3.30;99.90
1355;DHT22;671;48.972;9.276;2024-03-08T02:01:00;3.30;99.90
1355;DHT22;671;48.972;9.276;2024-03-08T02:03:29;3.30;99.90
1355;DHT22;671;48.972;9.276;2024-03-08T02:05:57;3.30;99.90
1355;DHT22;671;48.972;9.276;2024-03-08T02:08:25;3.30;99.90
1355;DHT22;671;48.972;9.276;2024-03-08T02:10:51;3.30;99.90
1355;DHT22;671;48.972;9.276;2024-03-08T02:13:18;3.20;99.90
1355;DHT22;671;48.972;9.276;2024-03-08T02:15:52;3.20;99.90
1355;DHT22;671;48.972;9.276;2024-03-08T02:18:19;3.20;99.90
1355;DHT22;671;48.972;9.276;2024-03-08T02:20:47;3.20;99.90
1355;DHT22;671;48.972;9.276;2024-03-08T02:23:14;3.20;99.90
1355;DHT22;671;48.972;9.276;2024-03-08T02:25:41;3.20;99.90
1355;DHT22;671;48.972;9.276;2024-03-08T02:28:11;3.20;99.90
1355;DHT22;671;48.972;9.276;2024-03-08T02:30:38;3.10;99.90
1355;DHT22;671;48.972;9.276;2024-03-08T02:33:05;3.10;99.90
1355;DHT22;671;48.972;9.276;2024-03-08T02:35:32;3.10;99.90
1355;DHT22;671;48.972;9.276;2024-03-08T02:38:03;3.10;99.90
1355;DHT22;671;48.972;9.276;2024-03-08T02:40:30;3.10;99.90
1355;DHT22;671;48.972;9.276;2024-03-08T02:42:56;3.10;99.90
1355;DHT22;671;48.972;9.276;2024-03-08T02:45:23;3.10;99.90
1355;DHT22;671;48.972;9.276;2024-03-08T02:47:49;3.00;99.90
1355;DHT22;671;48.972;9.276;2024-03-08T02:50:16;3.00;99.90
1355;DHT22;671;48.972;9.276;2024-03-08T02:52:43;3.00;99.90
1355;DHT22;671;48.972;9.276;2024-03-08T02:55:10;3.00;99.90
1355;DHT22;671;48.972;9.276;2024-03-08T02:57:43;3.00;99.90
1355;DHT22;671;48.972;9.276;2024-03-08T03:00:13;3.00;99.90
1355;DHT22;671;48.972;9.276;2024-03-08T03:02:40;3.00;99.90
1355;DHT22;671;48.972;9.276;2024-03-08T03:05:06;2.90;99.90
1355;DHT22;671;48.972;9.276;2024-03-08T03:07:33;2.90;99.90
1355;DHT22;671;48.972;9.276;2024-03-08T03:10:00;2.90;99.90
1355;DHT22;671;48.972;9.276;2024-03-08T03:12:31;2.90;99.90
1355;DHT22;671;48.972;9.276;2024-03-08T03:14:58;2.90;99.90
1355;DHT22;671;48.972;9.276;2024-03-08T03:17:24;2.90;99.90
1355;DHT22;671;48.972;9.276;2024-03-08T03:19:52;2.90;99.90
1355;DHT22;671;48.972;9.276;2024-03-08T03:22:19;2.90;99.90
1355;DHT22;671;48.972;9.276;2024-03-08T03:24:46;2.90;99.90
1355;DHT22;671;48.972;9.276;2024-03-08T03:27:17;2.80;99.90
1355;DHT22;671;48.972;9.276;2024-03-08T03:29:44;2.80;99.90
1355;DHT22;671;48.972;9.276;2024-03-08T03:32:15;2.80;99.90
1355;DHT22;671;48.972;9.276;2024-03-08T03:34:42;2.80;99.90
1355;DHT22;671;48.972;9.276;2024-03-08T03:37:10;2.80;99.90
1355;DHT22;671;48.972;9.276;2024-03-08T03:39:40;2.80;99.90
1355;DHT22;671;48.972;9.276;2024-03-08T03:42:15;2.80;99.90
1355;DHT22;671;48.972;9.276;2024-03-08T03:44:48;2.80;99.90
1355;DHT22;671;48.972;9.276;2024-03-08T03:47:15;2.80;99.90
1355;DHT22;671;48.972;9.276;2024-03-08T03:49:42;2.70;99.90
1355;DHT22;671;48.972;9.276;2024-03-08T03:52:09;2.70;99.90
1355;DHT22;671;48.972;9.276;2024-03-08T03:54:36;2.70;99.90
1355;DHT22;671;48.972;9.276;2024-03-08T03:57:03;2.70;99.90
1355;DHT22;671;48.972;9.276;2024-03-08T03:59:29;2.70;99.90
1355;DHT22;671;48.972;9.276;2024-03-08T04:01:56;2.70;99.90
1355;DHT22;671;48.972;9.276;2024-03-08T04:04:22;2.70;99.90
1355;DHT22;671;48.972;9.276;2024-03-08T04:06:50;2.70;99.90
1355;DHT22;671;48.972;9.276;2024-03-08T04:09:17;2.70;99.90
1355;DHT22;671;48.972;9.276;2024-03-08T04:11:49;2.70;99.90
1355;DHT22;671;48.972;9.276;2024-03-08T04:14:16;2.70;99.90
1355;DHT22;671;48.972;9.276;2024-03-08T04:16:42;2.70;99.90
1355;DHT22;671;48.972;9.276;2024-03-08T04:19:09;2.60;99.90
1355;DHT22;671;48.972;9.276;2024-03-08T04:21:36;2.60;99.90
1355;DHT22;671;48.972;9.276;2024-03-08T04:24:02;2.60;99.90
1355;DHT22;671;48.972;9.276;2024-03-08T04:26:29;2.60;99.90
1355;DHT22;671;48.972;9.276;2024-03-08T04:28:55;2.60;99.90
1355;DHT22;671;48.972;9.276;2024-03-08T04:31:22;2.60;99.90
1355;DHT22;671;48.972;9.276;2024-03-08T04:33:48;2.60;99.90
1355;DHT22;671;48.972;9.276;2024-03-08T04:36:15;2.60;99.90
1355;DHT22;671;48.972;9.276;2024-03-08T04:38:41;2.50;99.90
1355;DHT22;671;48.972;9.276;2024-03-08T04:41:08;2.60;99.90
1355;DHT22;671;48.972;9.276;2024-03-08T04:43:35;2.50;99.90
1355;DHT22;671;48.972;9.276;2024-03-08T04:46:02;2.50;99.90
1355;DHT22;671;48.972;9.276;2024-03-08T04:48:29;2.50;99.90
1355;DHT22;671;48.972;9.276;2024-03-08T04:50:56;2.50;99.90
1355;DHT22;671;48.972;9.276;2024-03-08T04:53:23;2.50;99.90
1355;DHT22;671;48.972;9.276;2024-03-08T04:55:49;2.50;99.90
1355;DHT22;671;48.972;9.276;2024-03-08T04:58:16;2.50;99.90
1355;DHT22;671;48.972;9.276;2024-03-08T05:00:42;2.50;99.90
1355;DHT22;671;48.972;9.276;2024-03-08T05:03:09;2.50;99.90
1355;DHT22;671;48.972;9.276;2024-03-08T05:05:35;2.40;99.90
1355;DHT22;671;48.972;9.276;2024-03-08T05:08:02;2.40;99.90
1355;DHT22;671;48.972;9.276;2024-03-08T05:10:29;2.40;99.90
1355;DHT22;671;48.972;9.276;2024-03-08T05:12:55;2.40;99.90
1355;DHT22;671;48.972;9.276;2024-03-08T05:15:22;2.40;99.90
1355;DHT22;671;48.972;9.276;2024-03-08T05:17:48;2.40;99.90
1355;DHT22;671;48.972;9.276;2024-03-08T05:20:15;2.40;99.90
1355;DHT22;671;48.972;9.276;2024-03-08T05:22:43;2.30;99.90
1355;DHT22;671;48.972;9.276;2024-03-08T05:25:09;2.30;99.90
1355;DHT22;671;48.972;9.276;2024-03-08T05:27:36;2.30;99.90
1355;DHT22;671;48.972;9.276;2024-03-08T05:30:03;2.30;99.90
1355;DHT22;671;48.972;9.276;2024-03-08T05:32:32;2.30;99.90
1355;DHT22;671;48.972;9.276;2024-03-08T05:34:59;2.30;99.90
1355;DHT22;671;48.972;9.276;2024-03-08T05:37:25;2.30;99.90
1355;DHT22;671;48.972;9.276;2024-03-08T05:39:52;2.30;99.90
1355;DHT22;671;48.972;9.276;2024-03-08T05:42:19;2.30;99.90
1355;DHT22;671;48.972;9.276;2024-03-08T05:44:46;2.20;99.90
1355;DHT22;671;48.972;9.276;2024-03-08T05:47:12;2.20;99.90
1355;DHT22;671;48.972;9.276;2024-03-08T05:49:39;2.20;99.90
1355;DHT22;671;48.972;9.276;2024-03-08T05:52:05;2.20;99.90
1355;DHT22;671;48.972;9.276;2024-03-08T05:54:32;2.20;99.90
1355;DHT22;671;48.972;9.276;2024-03-08T05:56:59;2.20;99.90
1355;DHT22;671;48.972;9.276;2024-03-08T05:59:25;2.20;99.90
1355;DHT22;671;48.972;9.276;2024-03-08T06:01:53;2.20;99.90
1355;DHT22;671;48.972;9.276;2024-03-08T06:04:19;2.20;99.90
1355;DHT22;671;48.972;9.276;2024-03-08T06:06:46;2.20;99.90
1355;DHT22;671;48.972;9.276;2024-03-08T06:09:12;2.20;99.90
1355;DHT22;671;48.972;9.276;2024-03-08T06:11:43;2.20;99.90
1355;DHT22;671;48.972;9.276;2024-03-08T06:14:09;2.20;99.90
1355;DHT22;671;48.972;9.276;2024-03-08T06:16:35;2.20;99.90
1355;DHT22;671;48.972;9.276;2024-03-08T06:19:02;2.20;99.90
1355;DHT22;671;48.972;9.276;2024-03-08T06:21:29;2.20;99.90
1355;DHT22;671;48.972;9.276;2024-03-08T06:23:55;2.20;99.90
1355;DHT22;671;48.972;9.276;2024-03-08T06:26:24;2.20;99.90
1355;DHT22;671;48.972;9.276;2024-03-08T06:28:51;2.20;99.90
1355;DHT22;671;48.972;9.276;2024-03-08T06:31:17;2.30;99.90
1355;DHT22;671;48.972;9.276;2024-03-08T06:33:44;2.30;99.90
1355;DHT22;671;48.972;9.276;2024-03-08T06:36:11;2.30;99.90
1355;DHT22;671;48.972;9.276;2024-03-08T06:38:38;2.40;99.90
1355;DHT22;671;48.972;9.276;2024-03-08T06:41:09;2.40;99.90
1355;DHT22;671;48.972;9.276;2024-03-08T06:43:45;2.40;99.90
1355;DHT22;671;48.972;9.276;2024-03-08T06:46:12;2.50;99.90
1355;DHT22;671;48.972;9.276;2024-03-08T06:48:39;2.60;99.90
1355;DHT22;671;48.972;9.276;2024-03-08T06:51:06;2.60;99.90
1355;DHT22;671;48.972;9.276;2024-03-08T06:53:32;2.70;99.90
1355;DHT22;671;48.972;9.276;2024-03-08T06:56:02;2.70;99.90
1355;DHT22;671;48.972;9.276;2024-03-08T06:58:28;2.80;99.90
1355;DHT22;671;48.972;9.276;2024-03-08T07:00:55;2.80;99.90
1355;DHT22;671;48.972;9.276;2024-03-08T07:03:24;2.90;99.90
1355;DHT22;671;48.972;9.276;2024-03-08T07:05:52;3.00;99.90
1355;DHT22;671;48.972;9.276;2024-03-08T07:08:19;3.10;99.90
1355;DHT22;671;48.972;9.276;2024-03-08T07:10:47;3.10;99.90
1355;DHT22;671;48.972;9.276;2024-03-08T07:13:15;3.20;99.90
1355;DHT22;671;48.972;9.276;2024-03-08T07:15:44;3.20;99.90
1355;DHT22;671;48.972;9.276;2024-03-08T07:18:11;3.30;99.90
1355;DHT22;671;48.972;9.276;2024-03-08T07:20:41;3.40;99.90
1355;DHT22;671;48.972;9.276;2024-03-08T07:23:08;3.50;99.90
1355;DHT22;671;48.972;9.276;2024-03-08T07:25:35;3.50;99.90
1355;DHT22;671;48.972;9.276;2024-03-08T07:28:01;3.60;99.90
1355;DHT22;671;48.972;9.276;2024-03-08T07:30:28;3.80;99.90
1355;DHT22;671;48.972;9.276;2024-03-08T07:33:10;3.90;99.90
1355;DHT22;671;48.972;9.276;2024-03-08T07:35:40;4.10;99.90
1355;DHT22;671;48.972;9.276;2024-03-08T07:38:08;4.30;99.90
1355;DHT22;671;48.972;9.276;2024-03-08T07:40:36;4.50;99.90
1355;DHT22;671;48.972;9.276;2024-03-08T07:43:07;4.70;99.90
1355;DHT22;671;48.972;9.276;2024-03-08T07:45:33;4.80;99.90
1355;DHT22;671;48.972;9.276;2024-03-08T07:48:02;5.00;99.90
1355;DHT22;671;48.972;9.276;2024-03-08T07:50:29;5.10;99.90
1355;DHT22;671;48.972;9.276;2024-03-08T07:52:55;5.20;99.90
1355;DHT22;671;48.972;9.276;2024-03-08T07:55:22;5.30;99.90
1355;DHT22;671;48.972;9.276;2024-03-08T07:57:50;5.30;99.90
1355;DHT22;671;48.972;9.276;2024-03-08T08:00:17;5.50;99.90
1355;DHT22;671;48.972;9.276;2024-03-08T08:02:45;5.50;99.90
1355;DHT22;671;48.972;9.276;2024-03-08T08:05:11;5.60;99.90
1355;DHT22;671;48.972;9.276;2024-03-08T08:07:38;5.60;99.90
1355;DHT22;671;48.972;9.276;2024-03-08T08:10:06;5.60;99.90
1355;DHT22;671;48.972;9.276;2024-03-08T08:12:33;5.70;99.90
1355;DHT22;671;48.972;9.276;2024-03-08T08:15:00;5.70;99.90
1355;DHT22;671;48.972;9.276;2024-03-08T08:17:27;5.80;99.90
1355;DHT22;671;48.972;9.276;2024-03-08T08:19:53;5.80;99.90
1355;DHT22;671;48.972;9.276;2024-03-08T08:22:20;5.80;99.90
1355;DHT22;671;48.972;9.276;2024-03-08T08:24:46;5.80;99.90
1355;DHT22;671;48.972;9.276;2024-03-08T08:27:12;5.90;99.90
1355;DHT22;671;48.972;9.276;2024-03-08T08:29:40;6.00;99.90
1355;DHT22;671;48.972;9.276;2024-03-08T08:32:07;6.00;99.90
1355;DHT22;671;48.972;9.276;2024-03-08T08:34:34;6.10;99.90
1355;DHT22;671;48.972;9.276;2024-03-08T08:37:00;6.20;99.90
1355;DHT22;671;48.972;9.276;2024-03-08T08:39:27;6.20;99.90
1355;DHT22;671;48.972;9.276;2024-03-08T08:41:54;6.30;99.90
1355;DHT22;671;48.972;9.276;2024-03-08T08:44:20;6.30;99.90
1355;DHT22;671;48.972;9.276;2024-03-08T08:46:46;6.40;99.90
1355;DHT22;671;48.972;9.276;2024-03-08T08:49:13;6.50;99.90
1355;DHT22;671;48.972;9.276;2024-03-08T08:51:49;6.50;99.90
1355;DHT22;671;48.972;9.276;2024-03-08T08:54:16;6.60;99.90
1355;DHT22;671;48.972;9.276;2024-03-08T08:56:43;6.60;99.90
1355;DHT22;671;48.972;9.276;2024-03-08T08:59:10;6.70;99.90
1355;DHT22;671;48.972;9.276;2024-03-08T09:01:40;6.80;99.90
1355;DHT22;671;48.972;9.276;2024-03-08T09:04:06;6.90;99.90
1355;DHT22;671;48.972;9.276;2024-03-08T09:06:33;6.90;99.90
1355;DHT22;671;48.972;9.276;2024-03-08T09:09:00;6.90;99.90
1355;DHT22;671;48.972;9.276;2024-03-08T09:11:26;6.90;99.90
1355;DHT22;671;48.972;9.276;2024-03-08T09:13:53;7.00;99.90
1355;DHT22;671;48.972;9.276;2024-03-08T09:16:19;7.00;99.90
1355;DHT22;671;48.972;9.276;2024-03-08T09:18:46;7.00;99.90
1355;DHT22;671;48.972;9.276;2024-03-08T09:21:14;7.10;99.90
1355;DHT22;671;48.972;9.276;2024-03-08T09:23:40;7.20;99.90
1355;DHT22;671;48.972;9.276;2024-03-08T09:26:07;7.30;99.90
1355;DHT22;671;48.972;9.276;2024-03-08T09:28:35;7.30;99.90
1355;DHT22;671;48.972;9.276;2024-03-08T09:31:01;7.30;99.90
1355;DHT22;671;48.972;9.276;2024-03-08T09:33:28;7.40;99.90
1355;DHT22;671;48.972;9.276;2024-03-08T09:35:55;7.50;99.90
1355;DHT22;671;48.972;9.276;2024-03-08T09:38:23;7.50;99.90
1355;DHT22;671;48.972;9.276;2024-03-08T09:40:52;7.60;99.90
1355;DHT22;671;48.972;9.276;2024-03-08T09:43:19;7.60;99.90
1355;DHT22;671;48.972;9.276;2024-03-08T09:45:49;7.70;99.90
1355;DHT22;671;48.972;9.276;2024-03-08T09:48:16;7.70;99.90
1355;DHT22;671;48.972;9.276;2024-03-08T09:50:45;7.80;99.90
1355;DHT22;671;48.972;9.276;2024-03-08T09:53:12;7.80;99.90
1355;DHT22;671;48.972;9.276;2024-03-08T09:55:38;7.90;99.90
1355;DHT22;671;48.972;9.276;2024-03-08T09:58:12;8.00;99.90
1355;DHT22;671;48.972;9.276;2024-03-08T10:00:54;8.10;99.90
1355;DHT22;671;48.972;9.276;2024-03-08T10:03:23;8.10;99.90
1355;DHT22;671;48.972;9.276;2024-03-08T10:05:52;8.00;99.90
1355;DHT22;671;48.972;9.276;2024-03-08T10:08:18;8.00;99.90
1355;DHT22;671;48.972;9.276;2024-03-08T10:10:46;8.10;99.90
1355;DHT22;671;48.972;9.276;2024-03-08T10:13:13;8.00;99.90
1355;DHT22;671;48.972;9.276;2024-03-08T10:15:40;8.20;99.90
1355;DHT22;671;48.972;9.276;2024-03-08T10:18:07;8.30;99.90
1355;DHT22;671;48.972;9.276;2024-03-08T10:20:33;8.40;99.90
1355;DHT22;671;48.972;9.276;2024-03-08T10:23:00;8.50;99.90
1355;DHT22;671;48.972;9.276;2024-03-08T10:25:29;8.60;99.90
1355;DHT22;671;48.972;9.276;2024-03-08T10:27:58;8.60;99.90
1355;DHT22;671;48.972;9.276;2024-03-08T10:30:25;8.70;99.90
1355;DHT22;671;48.972;9.276;2024-03-08T10:32:51;8.70;99.90
1355;DHT22;671;48.972;9.276;2024-03-08T10:35:18;8.80;99.90
1355;DHT22;671;48.972;9.276;2024-03-08T10:37:49;8.70;99.90
1355;DHT22;671;48.972;9.276;2024-03-08T10:40:29;8.70;99.90
1355;DHT22;671;48.972;9.276;2024-03-08T10:42:58;8.80;99.90
1355;DHT22;671;48.972;9.276;2024-03-08T10:45:33;8.80;99.90
1355;DHT22;671;48.972;9.276;2024-03-08T10:48:30;8.80;99.90
1355;DHT22;671;48.972;9.276;2024-03-08T10:51:05;8.70;99.90
1355;DHT22;671;48.972;9.276;2024-03-08T10:53:34;8.80;99.90
1355;DHT22;671;48.972;9.276;2024-03-08T10:56:00;9.00;99.90
1355;DHT22;671;48.972;9.276;2024-03-08T10:58:29;9.20;99.90
1355;DHT22;671;48.972;9.276;2024-03-08T11:00:56;9.30;99.90
1355;DHT22;671;48.972;9.276;2024-03-08T11:07:01;9.10;99.90
1355;DHT22;671;48.972;9.276;2024-03-08T11:09:02;9.10;99.90
1355;DHT22;671;48.972;9.276;2024-03-08T11:11:33;9.10;99.90
1355;DHT22;671;48.972;9.276;2024-03-08T11:14:03;9.10;99.90
1355;DHT22;671;48.972;9.276;2024-03-08T11:19:23;9.10;99.90
1355;DHT22;671;48.972;9.276;2024-03-08T11:22:00;9.10;99.90
1355;DHT22;671;48.972;9.276;2024-03-08T11:24:27;9.30;99.90
1355;DHT22;671;48.972;9.276;2024-03-08T11:26:57;9.50;99.90
1355;DHT22;671;48.972;9.276;2024-03-08T11:32:06;9.60;99.90
1355;DHT22;671;48.972;9.276;2024-03-08T11:34:33;9.60;99.90
1355;DHT22;671;48.972;9.276;2024-03-08T11:37:00;9.60;99.90
1355;DHT22;671;48.972;9.276;2024-03-08T11:39:27;9.60;99.90
1355;DHT22;671;48.972;9.276;2024-03-08T11:41:55;9.60;99.90
1355;DHT22;671;48.972;9.276;2024-03-08T11:44:21;9.70;99.90
1355;DHT22;671;48.972;9.276;2024-03-08T11:46:48;9.60;99.90
1355;DHT22;671;48.972;9.276;2024-03-08T11:49:14;9.50;99.90
1355;DHT22;671;48.972;9.276;2024-03-08T11:51:41;9.40;99.90
1355;DHT22;671;48.972;9.276;2024-03-08T11:54:12;9.50;99.90
1355;DHT22;671;48.972;9.276;2024-03-08T11:56:41;9.40;99.90
1355;DHT22;671;48.972;9.276;2024-03-08T11:59:13;9.50;99.90
1355;DHT22;671;48.972;9.276;2024-03-08T12:01:40;9.50;99.90
1355;DHT22;671;48.972;9.276;2024-03-08T12:04:12;9.60;99.90
1355;DHT22;671;48.972;9.276;2024-03-08T12:06:40;9.60;99.90
1355;DHT22;671;48.972;9.276;2024-03-08T12:09:13;9.80;99.90
1355;DHT22;671;48.972;9.276;2024-03-08T12:11:41;9.90;99.90
1355;DHT22;671;48.972;9.276;2024-03-08T12:14:09;10.00;99.90
1355;DHT22;671;48.972;9.276;2024-03-08T12:16:37;10.10;99.90
1355;DHT22;671;48.972;9.276;2024-03-08T12:19:03;10.20;99.90
1355;DHT22;671;48.972;9.276;2024-03-08T12:21:31;10.30;99.90
1355;DHT22;671;48.972;9.276;2024-03-08T12:26:29;10.30;99.90
1355;DHT22;671;48.972;9.276;2024-03-08T12:29:27;10.40;99.90
1355;DHT22;671;48.972;9.276;2024-03-08T12:31:54;10.50;99.90
1355;DHT22;671;48.972;9.276;2024-03-08T12:34:22;10.50;99.90
1355;DHT22;671;48.972;9.276;2024-03-08T12:36:50;10.50;99.90
1355;DHT22;671;48.972;9.276;2024-03-08T12:39:21;10.50;99.90
1355;DHT22;671;48.972;9.276;2024-03-08T12:41:56;10.60;99.90
1355;DHT22;671;48.972;9.276;2024-03-08T12:44:26;10.60;99.90
1355;DHT22;671;48.972;9.276;2024-03-08T12:46:54;10.70;99.90
1355;DHT22;671;48.972;9.276;2024-03-08T12:49:21;10.70;99.90
1355;DHT22;671;48.972;9.276;2024-03-08T12:51:51;10.70;99.90
1355;DHT22;671;48.972;9.276;2024-03-08T12:54:18;10.70;99.90
1355;DHT22;671;48.972;9.276;2024-03-08T12:56:49;10.80;99.90
1355;DHT22;671;48.972;9.276;2024-03-08T12:59:19;10.80;99.90
1355;DHT22;671;48.972;9.276;2024-03-08T13:01:48;10.90;99.90
1355;DHT22;671;48.972;9.276;2024-03-08T13:04:14;10.90;99.90
1355;DHT22;671;48.972;9.276;2024-03-08T13:06:41;11.00;99.90
1355;DHT22;671;48.972;9.276;2024-03-08T13:09:07;11.10;99.90
1355;DHT22;671;48.972;9.276;2024-03-08T13:11:34;11.10;99.90
1355;DHT22;671;48.972;9.276;2024-03-08T13:14:05;11.10;99.90
1355;DHT22;671;48.972;9.276;2024-03-08T13:16:32;11.20;99.90
1355;DHT22;671;48.972;9.276;2024-03-08T13:18:59;11.20;99.90
1355;DHT22;671;48.972;9.276;2024-03-08T13:21:25;11.20;99.90
1355;DHT22;671;48.972;9.276;2024-03-08T13:23:52;11.20;99.90
1355;DHT22;671;48.972;9.276;2024-03-08T13:26:19;11.20;99.90
1355;DHT22;671;48.972;9.276;2024-03-08T13:28:46;11.30;99.90
1355;DHT22;671;48.972;9.276;2024-03-08T13:31:15;11.40;99.90
1355;DHT22;671;48.972;9.276;2024-03-08T13:33:41;11.50;99.90
1355;DHT22;671;48.972;9.276;2024-03-08T13:36:13;11.50;99.90
1355;DHT22;671;48.972;9.276;2024-03-08T13:38:47;11.60;99.90
1355;DHT22;671;48.972;9.276;2024-03-08T13:41:14;11.60;99.90
1355;DHT22;671;48.972;9.276;2024-03-08T13:43:46;11.70;99.90
1355;DHT22;671;48.972;9.276;2024-03-08T13:46:15;11.70;99.90
1355;DHT22;671;48.972;9.276;2024-03-08T13:48:42;11.70;99.90
1355;DHT22;671;48.972;9.276;2024-03-08T13:51:09;11.70;99.90
1355;DHT22;671;48.972;9.276;2024-03-08T13:53:39;11.70;99.90
1355;DHT22;671;48.972;9.276;2024-03-08T13:56:06;11.80;99.90
1355;DHT22;671;48.972;9.276;2024-03-08T13:58:34;11.80;99.90
1355;DHT22;671;48.972;9.276;2024-03-08T14:01:01;11.80;99.90
1355;DHT22;671;48.972;9.276;2024-03-08T14:03:29;11.80;99.90
1355;DHT22;671;48.972;9.276;2024-03-08T14:05:56;11.80;99.90
1355;DHT22;671;48.972;9.276;2024-03-08T14:08:23;11.80;99.90
1355;DHT22;671;48.972;9.276;2024-03-08T14:10:51;11.80;99.90
1355;DHT22;671;48.972;9.276;2024-03-08T14:13:18;11.80;99.90
1355;DHT22;671;48.972;9.276;2024-03-08T14:15:45;11.80;99.90
1355;DHT22;671;48.972;9.276;2024-03-08T14:18:12;11.80;99.90
1355;DHT22;671;48.972;9.276;2024-03-08T14:20:41;11.80;99.90
1355;DHT22;671;48.972;9.276;2024-03-08T14:23:08;11.80;99.90
1355;DHT22;671;48.972;9.276;2024-03-08T14:25:34;11.90;99.90
1355;DHT22;671;48.972;9.276;2024-03-08T14:28:01;11.90;99.90
1355;DHT22;671;48.972;9.276;2024-03-08T14:30:34;11.90;99.90
1355;DHT22;671;48.972;9.276;2024-03-08T14:33:07;11.90;99.90
1355;DHT22;671;48.972;9.276;2024-03-08T14:35:40;12.00;99.90
1355;DHT22;671;48.972;9.276;2024-03-08T14:38:07;12.00;99.90
1355;DHT22;671;48.972;9.276;2024-03-08T14:40:34;12.00;99.90
1355;DHT22;671;48.972;9.276;2024-03-08T14:43:03;12.10;99.90
1355;DHT22;671;48.972;9.276;2024-03-08T14:45:31;12.10;99.90
1355;DHT22;671;48.972;9.276;2024-03-08T14:47:57;12.10;99.90
1355;DHT22;671;48.972;9.276;2024-03-08T14:50:24;12.10;99.90
1355;DHT22;671;48.972;9.276;2024-03-08T14:52:52;12.10;99.90
1355;DHT22;671;48.972;9.276;2024-03-08T14:55:19;12.10;99.90
1355;DHT22;671;48.972;9.276;2024-03-08T14:57:51;12.10;99.90
1355;DHT22;671;48.972;9.276;2024-03-08T15:00:19;12.10;99.90
1355;DHT22;671;48.972;9.276;2024-03-08T15:03:15;12.10;99.90
1355;DHT22;671;48.972;9.276;2024-03-08T15:05:42;12.10;99.90
1355;DHT22;671;48.972;9.276;2024-03-08T15:08:13;12.10;99.90
1355;DHT22;671;48.972;9.276;2024-03-08T15:10:48;12.20;99.90
1355;DHT22;671;48.972;9.276;2024-03-08T15:13:21;12.10;99.90
1355;DHT22;671;48.972;9.276;2024-03-08T15:15:50;12.10;99.90
1355;DHT22;671;48.972;9.276;2024-03-08T15:18:23;12.10;99.90
1355;DHT22;671;48.972;9.276;2024-03-08T15:20:52;12.10;99.90
1355;DHT22;671;48.972;9.276;2024-03-08T15:23:19;12.10;99.90
1355;DHT22;671;48.972;9.276;2024-03-08T15:25:47;12.10;99.90
1355;DHT22;671;48.972;9.276;2024-03-08T15:28:16;12.10;99.90
1355;DHT22;671;48.972;9.276;2024-03-08T15:30:46;12.00;99.90
1355;DHT22;671;48.972;9.276;2024-03-08T15:33:17;12.00;99.90
1355;DHT22;671;48.972;9.276;2024-03-08T15:35:51;12.00;99.90
1355;DHT22;671;48.972;9.276;2024-03-08T15:38:24;12.00;99.90
1355;DHT22;671;48.972;9.276;2024-03-08T15:40:54;12.00;99.90
1355;DHT22;671;48.972;9.276;2024-03-08T15:43:21;11.90;99.90
1355;DHT22;671;48.972;9.276;2024-03-08T15:45:48;11.90;99.90
1355;DHT22;671;48.972;9.276;2024-03-08T15:48:15;12.00;99.90
1355;DHT22;671;48.972;9.276;2024-03-08T15:50:42;11.90;99.90
1355;DHT22;671;48.972;9.276;2024-03-08T15:53:09;11.90;99.90
1355;DHT22;671;48.972;9.276;2024-03-08T15:55:38;11.90;99.90
1355;DHT22;671;48.972;9.276;2024-03-08T15:58:07;11.80;99.90
1355;DHT22;671;48.972;9.276;2024-03-08T16:00:33;11.80;99.90
1355;DHT22;671;48.972;9.276;2024-03-08T16:03:03;11.80;99.90
1355;DHT22;671;48.972;9.276;2024-03-08T16:05:33;11.80;99.90
1355;DHT22;671;48.972;9.276;2024-03-08T16:08:00;11.80;99.90
1355;DHT22;671;48.972;9.276;2024-03-08T16:10:27;11.70;99.90
1355;DHT22;671;48.972;9.276;2024-03-08T16:12:58;11.70;99.90
1355;DHT22;671;48.972;9.276;2024-03-08T16:15:26;11.60;99.90
1355;DHT22;671;48.972;9.276;2024-03-08T16:17:53;11.60;99.90
1355;DHT22;671;48.972;9.276;2024-03-08T16:20:19;11.50;99.90
1355;DHT22;671;48.972;9.276;2024-03-08T16:22:47;11.40;99.90
1355;DHT22;671;48.972;9.276;2024-03-08T16:25:18;11.40;99.90
1355;DHT22;671;48.972;9.276;2024-03-08T16:27:46;11.30;99.90
1355;DHT22;671;48.972;9.276;2024-03-08T16:30:13;11.30;99.90
1355;DHT22;671;48.972;9.276;2024-03-08T16:32:43;11.20;99.90
1355;DHT22;671;48.972;9.276;2024-03-08T16:35:11;11.20;99.90
1355;DHT22;671;48.972;9.276;2024-03-08T16:37:38;11.10;99.90
1355;DHT22;671;48.972;9.276;2024-03-08T16:40:06;11.10;99.90
1355;DHT22;671;48.972;9.276;2024-03-08T16:42:33;11.00;99.90
1355;DHT22;671;48.972;9.276;2024-03-08T16:44:59;10.90;99.90